createdAt,value
2023-01-09T00:00:46.592Z,3.30
2023-01-09T00:03:13.449Z,3.30
2023-01-09T00:05:40.225Z,3.10
2023-01-09T00:08:12.254Z,3.57
2023-01-09T00:10:39.128Z,3.37
2023-01-09T00:13:05.839Z,3.83
2023-01-09T00:15:32.690Z,3.03
2023-01-09T00:17:59.460Z,3.17
2023-01-09T00:20:26.260Z,3.13
2023-01-09T00:22:53.137Z,4.93
2023-01-09T00:25:19.960Z,4.57
2023-01-09T00:27:46.687Z,3.37
2023-01-09T00:30:13.621Z,3.13
2023-01-09T00:32:40.738Z,3.90
2023-01-09T00:35:11.882Z,4.13
2023-01-09T00:37:38.610Z,4.00
2023-01-09T00:40:05.681Z,3.30
2023-01-09T00:42:34.629Z,3.60
2023-01-09T00:45:07.715Z,3.70
2023-01-09T00:47:48.651Z,3.17
2023-01-09T00:50:22.011Z,3.63
2023-01-09T00:52:50.389Z,3.60
2023-01-09T00:55:17.749Z,3.60
2023-01-09T00:57:44.629Z,3.70
2023-01-09T01:00:12.025Z,3.33
2023-01-09T01:02:38.854Z,3.30
2023-01-09T01:05:25.820Z,3.37
2023-01-09T01:07:52.790Z,4.13
2023-01-09T01:10:23.314Z,3.63
2023-01-09T01:12:50.973Z,4.07
2023-01-09T01:15:19.321Z,5.00
2023-01-09T01:17:46.197Z,3.37
2023-01-09T01:20:16.538Z,3.90
2023-01-09T01:22:43.533Z,3.50
2023-01-09T01:25:11.949Z,3.90
2023-01-09T01:27:38.757Z,3.57
2023-01-09T01:30:07.596Z,4.33
2023-01-09T01:32:34.728Z,3.77
2023-01-09T01:35:01.519Z,4.10
2023-01-09T01:37:30.624Z,3.70
2023-01-09T01:39:57.440Z,3.43
2023-01-09T01:42:24.181Z,3.47
2023-01-09T01:45:05.969Z,2.90
2023-01-09T01:47:54.455Z,3.43
2023-01-09T01:50:43.059Z,3.23
2023-01-09T01:53:23.605Z,3.60
2023-01-09T01:55:50.291Z,3.53
2023-01-09T01:58:17.476Z,3.43
2023-01-09T02:00:46.577Z,4.07
2023-01-09T02:03:17.731Z,4.23
2023-01-09T02:05:45.134Z,3.37
2023-01-09T02:08:12.551Z,3.40
2023-01-09T02:10:40.712Z,3.33
2023-01-09T02:13:09.049Z,4.00
2023-01-09T02:16:06.938Z,3.03
2023-01-09T02:18:43.008Z,2.67
2023-01-09T02:21:53.276Z,3.70
2023-01-09T02:24:47.855Z,3.10
2023-01-09T02:27:39.113Z,2.47
2023-01-09T02:30:24.291Z,3.27
2023-01-09T02:33:29.744Z,2.50
2023-01-09T02:36:02.440Z,2.30
2023-01-09T02:38:53.500Z,2.87
2023-01-09T02:41:47.821Z,2.53
2023-01-09T02:44:27.358Z,3.47
2023-01-09T02:47:05.870Z,2.90
2023-01-09T02:49:38.427Z,3.07
2023-01-09T02:52:30.424Z,2.43
2023-01-09T02:55:12.037Z,3.27
2023-01-09T02:57:58.005Z,3.07
2023-01-09T03:00:45.710Z,2.70
2023-01-09T03:03:25.338Z,3.73
2023-01-09T03:06:12.942Z,2.53
2023-01-09T03:08:47.023Z,2.67
2023-01-09T03:11:13.848Z,2.90
2023-01-09T03:13:58.505Z,2.43
2023-01-09T03:16:31.311Z,2.53
2023-01-09T03:19:00.555Z,2.60
2023-01-09T03:21:28.470Z,2.60
2023-01-09T03:24:00.602Z,2.70
2023-01-09T03:26:31.532Z,2.23
2023-01-09T03:28:59.478Z,2.97
2023-01-09T03:31:26.311Z,2.40
2023-01-09T03:33:53.134Z,2.10
2023-01-09T03:36:21.371Z,2.60
2023-01-09T03:38:48.242Z,2.77
2023-01-09T03:41:15.284Z,2.70
2023-01-09T03:43:42.040Z,2.37
2023-01-09T03:46:08.917Z,2.73
2023-01-09T03:48:35.735Z,2.33
2023-01-09T03:51:02.493Z,2.20
2023-01-09T03:53:29.573Z,3.03
2023-01-09T03:55:58.118Z,2.47
2023-01-09T03:58:26.016Z,1.80
2023-01-09T04:00:58.559Z,2.43
2023-01-09T04:03:25.434Z,2.27
2023-01-09T04:05:52.211Z,2.93
2023-01-09T04:08:20.132Z,2.10
2023-01-09T04:10:48.663Z,2.10
2023-01-09T04:13:16.114Z,2.43
2023-01-09T04:15:43.175Z,2.40
2023-01-09T04:18:10.185Z,2.70
2023-01-09T04:20:37.135Z,2.57
2023-01-09T04:23:03.920Z,2.07
2023-01-09T04:25:30.704Z,1.90
2023-01-09T04:27:58.647Z,1.83
2023-01-09T04:30:25.983Z,2.60
2023-01-09T04:32:52.890Z,2.03
2023-01-09T04:35:20.081Z,1.80
2023-01-09T04:37:46.964Z,1.87
2023-01-09T04:40:14.251Z,1.73
2023-01-09T04:42:41.661Z,1.77
2023-01-09T04:45:10.784Z,1.93
2023-01-09T04:47:38.293Z,2.00
2023-01-09T04:50:05.738Z,1.87
2023-01-09T04:52:32.514Z,1.50
2023-01-09T04:54:59.260Z,2.30
2023-01-09T04:57:26.050Z,1.90
2023-01-09T04:59:54.189Z,1.40
2023-01-09T05:02:21.173Z,2.00
2023-01-09T05:04:50.016Z,1.40
2023-01-09T05:07:16.762Z,1.40
2023-01-09T05:09:44.679Z,2.20
2023-01-09T05:12:11.410Z,1.60
2023-01-09T05:14:38.243Z,1.67
2023-01-09T05:17:05.017Z,1.73
2023-01-09T05:19:31.893Z,1.80
2023-01-09T05:21:58.682Z,2.23
2023-01-09T05:24:25.479Z,1.30
2023-01-09T05:26:52.310Z,1.60
2023-01-09T05:29:19.151Z,1.43
2023-01-09T05:31:46.024Z,2.03
2023-01-09T05:34:12.987Z,1.80
2023-01-09T05:36:39.814Z,1.90
2023-01-09T05:39:07.225Z,1.50
2023-01-09T05:41:34.000Z,1.83
2023-01-09T05:44:00.786Z,1.80
2023-01-09T05:46:27.555Z,1.60
2023-01-09T05:48:54.303Z,1.70
2023-01-09T05:51:21.023Z,2.67
2023-01-09T05:53:48.093Z,3.17
2023-01-09T05:56:14.961Z,2.10
2023-01-09T05:58:41.765Z,1.90
2023-01-09T06:01:08.765Z,1.90
2023-01-09T06:03:38.141Z,2.50
2023-01-09T06:06:05.133Z,2.23
2023-01-09T06:08:31.908Z,1.43
2023-01-09T06:10:58.643Z,1.77
2023-01-09T06:13:25.489Z,2.23
2023-01-09T06:15:52.404Z,1.83
2023-01-09T06:18:19.409Z,1.73
2023-01-09T06:20:46.137Z,2.10
2023-01-09T06:23:13.800Z,2.13
2023-01-09T06:25:40.877Z,2.30
2023-01-09T06:28:07.939Z,2.47
2023-01-09T06:30:34.870Z,2.57
2023-01-09T06:33:01.648Z,2.30
2023-01-09T06:35:28.480Z,2.20
2023-01-09T06:37:55.258Z,1.90
2023-01-09T06:40:22.022Z,2.50
2023-01-09T06:42:49.942Z,2.17
2023-01-09T06:45:16.942Z,2.47
2023-01-09T06:47:44.009Z,2.00
2023-01-09T06:50:11.878Z,2.13
2023-01-09T06:52:39.463Z,1.93
2023-01-09T06:55:07.089Z,2.33
2023-01-09T06:57:34.048Z,2.07
2023-01-09T07:00:00.819Z,2.60
2023-01-09T07:02:27.617Z,2.40
2023-01-09T07:04:54.419Z,2.23
2023-01-09T07:07:22.673Z,2.80
2023-01-09T07:09:49.884Z,3.20
2023-01-09T07:12:16.768Z,2.60
2023-01-09T07:14:43.583Z,2.27
2023-01-09T07:17:13.556Z,2.00
2023-01-09T07:19:40.589Z,2.43
2023-01-09T07:22:07.663Z,2.40
2023-01-09T07:24:34.416Z,2.43
2023-01-09T07:27:02.027Z,1.80
2023-01-09T07:29:28.949Z,2.53
2023-01-09T07:31:55.685Z,2.17
2023-01-09T07:34:22.495Z,2.10
2023-01-09T07:36:50.697Z,2.90
2023-01-09T07:39:17.683Z,2.50
2023-01-09T07:41:44.982Z,2.77
2023-01-09T07:44:12.011Z,1.97
2023-01-09T07:46:39.034Z,2.50
2023-01-09T07:49:06.050Z,2.63
2023-01-09T07:51:32.796Z,3.10
2023-01-09T07:53:59.650Z,2.80
2023-01-09T07:56:26.373Z,2.60
2023-01-09T07:58:53.184Z,2.80
2023-01-09T08:01:20.301Z,2.60
2023-01-09T08:03:48.126Z,3.00
2023-01-09T08:06:14.991Z,2.87
2023-01-09T08:08:43.264Z,2.47
2023-01-09T08:11:10.409Z,2.60
2023-01-09T08:13:37.232Z,2.47
2023-01-09T08:16:04.273Z,3.73
2023-01-09T08:18:31.168Z,3.73
2023-01-09T08:20:58.002Z,2.93
2023-01-09T08:23:24.730Z,2.70
2023-01-09T08:25:52.685Z,2.50
2023-01-09T08:28:19.734Z,2.40
2023-01-09T08:30:47.668Z,2.50
2023-01-09T08:33:15.075Z,2.87
2023-01-09T08:35:44.115Z,3.97
2023-01-09T08:38:11.444Z,2.13
2023-01-09T08:40:38.700Z,2.30
2023-01-09T08:43:24.262Z,2.47
2023-01-09T08:46:10.399Z,2.33
2023-01-09T08:48:37.204Z,3.10
2023-01-09T08:51:04.087Z,2.23
2023-01-09T08:53:31.622Z,2.43
2023-01-09T08:55:59.305Z,2.90
2023-01-09T08:58:26.092Z,2.40
2023-01-09T09:00:52.886Z,2.13
2023-01-09T09:03:19.688Z,3.00
2023-01-09T09:05:46.988Z,2.10
2023-01-09T09:08:13.967Z,2.30
2023-01-09T09:10:40.729Z,1.93
2023-01-09T09:13:07.481Z,2.30
2023-01-09T09:15:34.862Z,3.03
2023-01-09T09:18:04.506Z,2.30
2023-01-09T09:20:34.033Z,2.37
2023-01-09T09:23:00.920Z,2.23
2023-01-09T09:25:28.494Z,2.90
2023-01-09T09:27:56.382Z,2.13
2023-01-09T09:30:23.940Z,2.00
2023-01-09T09:32:50.798Z,2.50
2023-01-09T09:35:18.101Z,2.13
2023-01-09T09:37:54.460Z,2.13
2023-01-09T09:40:38.799Z,1.90
2023-01-09T09:43:30.499Z,1.83
2023-01-09T09:46:22.763Z,2.20
2023-01-09T09:49:02.417Z,1.80
2023-01-09T09:52:17.325Z,1.90
2023-01-09T09:54:50.622Z,1.80
2023-01-09T09:57:27.917Z,1.93
2023-01-09T09:59:56.502Z,2.60
2023-01-09T10:03:04.219Z,1.83
2023-01-09T10:05:36.363Z,2.43
2023-01-09T10:08:16.305Z,1.80
2023-01-09T10:10:55.129Z,1.63
2023-01-09T10:13:43.514Z,2.93
2023-01-09T10:16:25.774Z,0.97
2023-01-09T10:19:05.102Z,1.40
2023-01-09T10:21:57.294Z,1.10
2023-01-09T10:24:38.508Z,1.30
2023-01-09T10:27:24.961Z,1.20
2023-01-09T10:30:25.695Z,1.43
2023-01-09T10:33:05.239Z,1.13
2023-01-09T10:35:47.649Z,1.17
2023-01-09T10:38:20.585Z,1.07
2023-01-09T10:40:54.122Z,1.37
2023-01-09T10:43:34.964Z,1.53
2023-01-09T10:46:07.630Z,1.17
2023-01-09T10:48:45.485Z,1.03
2023-01-09T10:51:24.829Z,1.17
2023-01-09T10:53:54.123Z,1.27
2023-01-09T10:56:27.197Z,1.70
2023-01-09T10:58:55.500Z,0.93
2023-01-09T11:01:37.655Z,1.17
2023-01-09T11:04:20.559Z,0.80
2023-01-09T11:06:51.648Z,0.93
2023-01-09T11:09:19.108Z,1.20
2023-01-09T11:11:45.934Z,1.40
2023-01-09T11:14:31.427Z,1.13
2023-01-09T11:17:03.938Z,1.10
2023-01-09T11:19:33.279Z,1.00
2023-01-09T11:22:06.227Z,1.40
2023-01-09T11:24:33.155Z,1.17
2023-01-09T11:27:23.601Z,1.00
2023-01-09T11:30:15.605Z,1.13
2023-01-09T11:32:44.737Z,1.60
2023-01-09T11:35:27.251Z,1.23
2023-01-09T11:38:18.374Z,1.37
2023-01-09T11:40:54.659Z,0.97
2023-01-09T11:43:25.643Z,0.90
2023-01-09T11:46:00.964Z,1.10
2023-01-09T11:48:34.572Z,1.30
2023-01-09T11:51:05.947Z,1.43
2023-01-09T11:53:48.763Z,1.10
2023-01-09T11:56:17.403Z,1.20
2023-01-09T11:58:44.808Z,1.40
2023-01-09T12:01:40.512Z,1.27
2023-01-09T12:04:25.114Z,1.30
2023-01-09T12:06:57.695Z,1.20
2023-01-09T12:09:49.388Z,1.57
2023-01-09T12:12:40.637Z,1.93
2023-01-09T12:15:09.891Z,1.23
2023-01-09T12:17:42.851Z,1.90
2023-01-09T12:20:33.559Z,1.73
2023-01-09T12:23:17.802Z,2.20
2023-01-09T12:26:16.299Z,2.00
2023-01-09T12:28:58.280Z,2.00
2023-01-09T12:31:39.171Z,2.07
2023-01-09T12:34:21.188Z,1.73
2023-01-09T12:37:13.410Z,1.50
2023-01-09T12:40:09.497Z,1.67
2023-01-09T12:42:45.129Z,1.60
2023-01-09T12:45:29.879Z,1.27
2023-01-09T12:48:09.277Z,2.00
2023-01-09T12:51:17.777Z,1.43
2023-01-09T12:53:51.216Z,1.67
2023-01-09T12:56:29.449Z,2.67
2023-01-09T12:59:10.295Z,1.50
2023-01-09T13:01:42.045Z,1.63
2023-01-09T13:04:14.700Z,2.80
2023-01-09T13:06:49.213Z,3.30
2023-01-09T13:09:29.377Z,2.43
2023-01-09T13:12:28.365Z,1.90
2023-01-09T13:15:15.016Z,2.27
2023-01-09T13:17:51.484Z,2.07
2023-01-09T13:20:36.386Z,2.00
2023-01-09T13:23:05.499Z,2.10
2023-01-09T13:25:38.237Z,2.40
2023-01-09T13:28:19.180Z,2.77
2023-01-09T13:31:17.052Z,1.87
2023-01-09T13:33:51.371Z,1.60
2023-01-09T13:36:39.288Z,2.20
2023-01-09T13:39:06.828Z,2.67
2023-01-09T13:42:04.707Z,2.30
2023-01-09T13:44:33.727Z,2.57
2023-01-09T13:47:03.368Z,2.33
2023-01-09T13:49:42.082Z,2.37
2023-01-09T13:52:32.111Z,2.53
2023-01-09T13:54:58.965Z,1.90
2023-01-09T13:57:35.112Z,1.80
2023-01-09T14:00:14.840Z,2.07
2023-01-09T14:02:42.356Z,2.50
2023-01-09T14:05:16.223Z,3.13
2023-01-09T14:07:45.604Z,2.33
2023-01-09T14:10:37.743Z,2.63
2023-01-09T14:13:18.668Z,1.93
2023-01-09T14:15:47.143Z,2.43
2023-01-09T14:18:24.844Z,2.40
2023-01-09T14:20:58.193Z,1.93
2023-01-09T14:23:51.713Z,2.07
2023-01-09T14:26:44.198Z,1.90
2023-01-09T14:29:36.175Z,1.93
2023-01-09T14:32:26.448Z,2.50
2023-01-09T14:35:12.844Z,2.37
2023-01-09T14:37:41.088Z,1.97
2023-01-09T14:40:16.328Z,2.53
2023-01-09T14:42:46.028Z,3.53
2023-01-09T14:45:20.943Z,2.67
2023-01-09T14:47:53.612Z,1.87
2023-01-09T14:50:36.856Z,2.77
2023-01-09T14:53:20.987Z,1.77
2023-01-09T14:55:53.813Z,2.93
2023-01-09T14:58:24.904Z,2.60
2023-01-09T15:01:10.039Z,2.93
2023-01-09T15:03:45.186Z,2.03
2023-01-09T15:06:23.882Z,2.90
2023-01-09T15:09:19.421Z,2.73
2023-01-09T15:11:46.834Z,2.70
2023-01-09T15:14:36.008Z,1.93
2023-01-09T15:17:04.096Z,2.33
2023-01-09T15:19:34.503Z,2.97
2023-01-09T15:22:06.693Z,2.63
2023-01-09T15:24:34.828Z,3.10
2023-01-09T15:27:23.378Z,2.63
2023-01-09T15:29:51.398Z,3.23
2023-01-09T15:32:27.992Z,2.90
2023-01-09T15:34:56.448Z,3.40
2023-01-09T15:37:34.082Z,3.07
2023-01-09T15:40:02.793Z,2.83
2023-01-09T15:42:52.141Z,2.80
2023-01-09T15:45:33.919Z,2.60
2023-01-09T15:48:23.580Z,2.50
2023-01-09T15:50:55.409Z,1.70
2023-01-09T15:53:31.026Z,2.97
2023-01-09T15:56:13.047Z,2.90
2023-01-09T15:58:48.114Z,2.17
2023-01-09T16:01:30.917Z,3.13
2023-01-09T16:04:10.021Z,2.20
2023-01-09T16:06:47.813Z,2.57
2023-01-09T16:09:23.717Z,2.43
2023-01-09T16:11:53.778Z,2.63
2023-01-09T16:14:24.227Z,2.87
2023-01-09T16:16:52.394Z,2.63
2023-01-09T16:19:29.882Z,3.03
2023-01-09T16:22:01.718Z,2.37
2023-01-09T16:24:41.214Z,2.53
2023-01-09T16:27:21.878Z,3.20
2023-01-09T16:29:50.124Z,2.37
2023-01-09T16:32:22.559Z,3.17
2023-01-09T16:34:54.781Z,3.33
2023-01-09T16:37:23.138Z,1.90
2023-01-09T16:40:05.422Z,2.53
2023-01-09T16:42:51.888Z,2.90
2023-01-09T16:45:18.747Z,2.97
2023-01-09T16:47:46.392Z,2.93
2023-01-09T16:50:14.241Z,2.63
2023-01-09T16:52:41.304Z,2.23
2023-01-09T16:55:09.615Z,2.47
2023-01-09T16:57:36.878Z,2.67
2023-01-09T17:00:04.568Z,2.40
2023-01-09T17:02:31.443Z,2.43
2023-01-09T17:04:59.598Z,2.77
2023-01-09T17:07:26.434Z,3.17
2023-01-09T17:09:53.467Z,2.60
2023-01-09T17:12:26.731Z,3.10
2023-01-09T17:14:53.675Z,3.20
2023-01-09T17:17:21.582Z,2.40
2023-01-09T17:19:49.230Z,2.60
2023-01-09T17:22:16.531Z,2.87
2023-01-09T17:25:01.805Z,3.67
2023-01-09T17:27:51.479Z,2.60
2023-01-09T17:30:19.423Z,2.03
2023-01-09T17:32:47.275Z,2.37
2023-01-09T17:35:15.750Z,2.70
2023-01-09T17:37:43.325Z,3.37
2023-01-09T17:40:23.252Z,2.70
2023-01-09T17:42:50.047Z,2.10
2023-01-09T17:45:16.961Z,2.53
2023-01-09T17:47:43.847Z,2.53
2023-01-09T17:50:19.697Z,2.10
2023-01-09T17:52:49.565Z,3.63
2023-01-09T17:55:16.630Z,2.17
2023-01-09T17:57:43.771Z,2.27
2023-01-09T18:00:27.764Z,2.20
2023-01-09T18:02:56.642Z,3.03
2023-01-09T18:05:24.469Z,3.10
2023-01-09T18:07:51.679Z,2.67
2023-01-09T18:10:20.664Z,2.60
2023-01-09T18:12:48.282Z,2.77
2023-01-09T18:15:15.436Z,3.80
2023-01-09T18:17:42.218Z,3.47
2023-01-09T18:20:10.603Z,2.47
2023-01-09T18:22:37.656Z,2.10
2023-01-09T18:25:04.998Z,3.67
2023-01-09T18:27:32.177Z,3.10
2023-01-09T18:30:01.365Z,3.43
2023-01-09T18:32:28.918Z,3.77
2023-01-09T18:34:55.645Z,3.53
2023-01-09T18:37:22.619Z,2.37
2023-01-09T18:39:49.373Z,3.50
2023-01-09T18:42:16.159Z,3.37
2023-01-09T18:44:42.941Z,3.53
2023-01-09T18:47:09.765Z,3.30
2023-01-09T18:49:36.542Z,3.00
2023-01-09T18:52:03.373Z,2.93
2023-01-09T18:54:30.149Z,2.80
2023-01-09T18:56:57.141Z,2.50
2023-01-09T18:59:23.974Z,2.87
2023-01-09T19:01:50.838Z,3.13
2023-01-09T19:04:17.742Z,3.17
2023-01-09T19:06:44.508Z,3.27
2023-01-09T19:09:11.487Z,2.97
2023-01-09T19:11:38.291Z,2.67
2023-01-09T19:14:05.070Z,3.40
2023-01-09T19:16:31.907Z,3.27
2023-01-09T19:18:59.081Z,2.93
2023-01-09T19:21:26.986Z,2.63
2023-01-09T19:23:54.838Z,2.73
2023-01-09T19:26:28.738Z,2.67
2023-01-09T19:28:57.527Z,2.97
2023-01-09T19:31:26.680Z,3.43
2023-01-09T19:33:53.844Z,2.83
2023-01-09T19:36:22.033Z,2.87
2023-01-09T19:38:49.170Z,3.33
2023-01-09T19:41:21.033Z,2.97
2023-01-09T19:43:48.325Z,3.40
2023-01-09T19:46:18.432Z,3.03
2023-01-09T19:48:45.663Z,2.73
2023-01-09T19:51:14.175Z,4.93
2023-01-09T19:53:41.061Z,3.77
2023-01-09T19:56:07.926Z,3.03
2023-01-09T19:58:34.868Z,3.83
2023-01-09T20:01:13.524Z,2.83
2023-01-09T20:03:41.988Z,3.17
2023-01-09T20:06:14.310Z,3.17
2023-01-09T20:08:48.347Z,3.47
2023-01-09T20:11:16.508Z,3.17
2023-01-09T20:13:43.906Z,4.13
2023-01-09T20:16:16.062Z,3.17
2023-01-09T20:18:43.566Z,3.60
2023-01-09T20:21:10.452Z,3.10
2023-01-09T20:23:37.605Z,4.10
2023-01-09T20:26:05.184Z,3.13
2023-01-09T20:28:31.910Z,3.17
2023-01-09T20:30:58.779Z,3.27
2023-01-09T20:33:26.066Z,3.57
2023-01-09T20:35:52.905Z,2.67
2023-01-09T20:38:19.625Z,3.37
2023-01-09T20:40:46.408Z,4.10
2023-01-09T20:43:14.329Z,2.73
2023-01-09T20:45:41.190Z,2.93
2023-01-09T20:48:11.020Z,3.50
2023-01-09T20:50:38.483Z,3.00
2023-01-09T20:53:07.848Z,3.97
2023-01-09T20:55:35.380Z,2.87
2023-01-09T20:58:02.242Z,4.63
2023-01-09T21:00:32.032Z,3.30
2023-01-09T21:02:59.627Z,3.83
2023-01-09T21:05:26.789Z,3.90
2023-01-09T21:07:53.591Z,4.07
2023-01-09T21:10:20.524Z,4.70
2023-01-09T21:12:47.421Z,3.30
2023-01-09T21:15:16.850Z,3.93
2023-01-09T21:17:44.002Z,4.30
2023-01-09T21:20:13.488Z,4.13
2023-01-09T21:22:40.345Z,4.57
2023-01-09T21:25:07.779Z,5.20
2023-01-09T21:27:39.797Z,3.53
2023-01-09T21:30:08.298Z,3.83
2023-01-09T21:32:35.149Z,4.00
2023-01-09T21:35:05.899Z,3.70
2023-01-09T21:37:35.942Z,4.57
2023-01-09T21:40:09.579Z,4.80
2023-01-09T21:42:55.203Z,3.67
2023-01-09T21:45:40.823Z,3.50
2023-01-09T21:48:08.196Z,3.87
2023-01-09T21:50:35.736Z,3.70
2023-01-09T21:53:03.521Z,3.30
2023-01-09T21:55:33.241Z,3.27
2023-01-09T21:58:04.205Z,3.87
2023-01-09T22:00:31.284Z,4.20
2023-01-09T22:02:59.054Z,4.53
2023-01-09T22:05:27.458Z,4.50
2023-01-09T22:07:56.242Z,4.27
2023-01-09T22:10:23.053Z,4.60
2023-01-09T22:13:10.257Z,4.50
2023-01-09T22:15:38.355Z,4.47
2023-01-09T22:18:06.006Z,4.13
2023-01-09T22:20:32.880Z,4.07
2023-01-09T22:22:59.770Z,4.63
2023-01-09T22:25:26.665Z,4.13
2023-01-09T22:27:53.496Z,4.23
2023-01-09T22:30:20.404Z,3.93
2023-01-09T22:32:47.270Z,4.20
2023-01-09T22:35:14.246Z,3.77
2023-01-09T22:37:41.308Z,5.57
2023-01-09T22:40:14.437Z,4.33
2023-01-09T22:42:41.294Z,4.57
2023-01-09T22:45:08.554Z,5.07
2023-01-09T22:47:35.318Z,4.10
2023-01-09T22:50:02.021Z,4.77
2023-01-09T22:52:29.091Z,4.10
2023-01-09T22:54:56.037Z,4.23
2023-01-09T22:57:22.884Z,4.10
2023-01-09T22:59:49.645Z,4.47
2023-01-09T23:02:16.493Z,6.30
2023-01-09T23:04:43.323Z,4.20
2023-01-09T23:07:10.090Z,4.43
2023-01-09T23:09:36.903Z,3.83
2023-01-09T23:12:03.835Z,5.17
2023-01-09T23:14:33.217Z,4.57
2023-01-09T23:17:00.048Z,5.10
2023-01-09T23:19:27.069Z,4.90
2023-01-09T23:21:53.927Z,4.63
2023-01-09T23:24:20.727Z,3.87
2023-01-09T23:26:47.739Z,4.93
2023-01-09T23:29:14.656Z,5.23
2023-01-09T23:31:41.813Z,4.13
2023-01-09T23:34:08.728Z,4.20
2023-01-09T23:36:36.065Z,4.60
2023-01-09T23:39:04.266Z,4.87
2023-01-09T23:41:49.848Z,4.17
2023-01-09T23:44:16.699Z,5.20
2023-01-09T23:46:43.488Z,5.00
2023-01-09T23:49:10.469Z,4.43
2023-01-09T23:51:37.348Z,5.17
2023-01-09T23:54:04.293Z,4.23
2023-01-09T23:56:33.792Z,5.17
2023-01-09T23:59:01.971Z,4.87
